sensor_id;sensor_type;location;lat;lon;timestamp;temperature;humidity
45843;DHT22;31563;51.744;8.252;2023-03-01T00:00:18;20.20;35.30
45843;DHT22;31563;51.744;8.252;2023-03-01T00:02:46;20.20;35.20
45843;DHT22;31563;51.744;8.252;2023-03-01T00:05:15;20.10;35.30
45843;DHT22;31563;51.744;8.252;2023-03-01T00:07:43;20.10;35.30
45843;DHT22;31563;51.744;8.252;2023-03-01T00:10:11;20.00;35.20
45843;DHT22;31563;51.744;8.252;2023-03-01T00:12:41;20.00;35.30
45843;DHT22;31563;51.744;8.252;2023-03-01T00:15:09;20.00;35.30
45843;DHT22;31563;51.744;8.252;2023-03-01T00:17:38;19.90;35.30
45843;DHT22;31563;51.744;8.252;2023-03-01T00:20:07;20.00;35.40
45843;DHT22;31563;51.744;8.252;2023-03-01T00:22:37;19.90;35.30
45843;DHT22;31563;51.744;8.252;2023-03-01T00:25:05;19.90;35.20
45843;DHT22;31563;51.744;8.252;2023-03-01T00:27:33;19.90;35.30
45843;DHT22;31563;51.744;8.252;2023-03-01T00:30:03;19.90;35.40
45843;DHT22;31563;51.744;8.252;2023-03-01T00:32:31;19.80;35.30
45843;DHT22;31563;51.744;8.252;2023-03-01T00:35:00;19.80;35.20
45843;DHT22;31563;51.744;8.252;2023-03-01T00:37:28;19.80;35.20
45843;DHT22;31563;51.744;8.252;2023-03-01T00:39:56;19.80;35.20
45843;DHT22;31563;51.744;8.252;2023-03-01T00:42:24;19.70;35.30
45843;DHT22;31563;51.744;8.252;2023-03-01T00:45:02;19.70;35.30
45843;DHT22;31563;51.744;8.252;2023-03-01T00:47:31;19.70;35.40
45843;DHT22;31563;51.744;8.252;2023-03-01T00:49:59;19.60;35.30
45843;DHT22;31563;51.744;8.252;2023-03-01T00:52:27;19.70;35.40
45843;DHT22;31563;51.744;8.252;2023-03-01T00:54:55;19.60;35.40
45843;DHT22;31563;51.744;8.252;2023-03-01T00:57:24;19.50;35.40
45843;DHT22;31563;51.744;8.252;2023-03-01T00:59:52;19.50;35.40
45843;DHT22;31563;51.744;8.252;2023-03-01T01:02:22;19.50;35.50
45843;DHT22;31563;51.744;8.252;2023-03-01T01:04:50;19.50;35.50
45843;DHT22;31563;51.744;8.252;2023-03-01T01:07:18;19.50;35.50
45843;DHT22;31563;51.744;8.252;2023-03-01T01:09:47;19.40;35.50
45843;DHT22;31563;51.744;8.252;2023-03-01T01:12:15;19.40;35.40
45843;DHT22;31563;51.744;8.252;2023-03-01T01:14:44;19.40;35.40
45843;DHT22;31563;51.744;8.252;2023-03-01T01:17:12;19.30;35.30
45843;DHT22;31563;51.744;8.252;2023-03-01T01:19:42;19.30;35.40
45843;DHT22;31563;51.744;8.252;2023-03-01T01:22:10;19.40;35.40
45843;DHT22;31563;51.744;8.252;2023-03-01T01:24:38;19.30;35.30
45843;DHT22;31563;51.744;8.252;2023-03-01T01:27:06;19.30;35.30
45843;DHT22;31563;51.744;8.252;2023-03-01T01:29:35;19.30;35.40
45843;DHT22;31563;51.744;8.252;2023-03-01T01:32:03;19.20;35.30
45843;DHT22;31563;51.744;8.252;2023-03-01T01:34:31;19.20;35.40
45843;DHT22;31563;51.744;8.252;2023-03-01T01:37:01;19.20;35.40
45843;DHT22;31563;51.744;8.252;2023-03-01T01:39:29;19.20;35.40
45843;DHT22;31563;51.744;8.252;2023-03-01T01:41:57;19.20;35.50
45843;DHT22;31563;51.744;8.252;2023-03-01T01:44:27;19.10;35.40
45843;DHT22;31563;51.744;8.252;2023-03-01T01:46:57;19.10;35.50
45843;DHT22;31563;51.744;8.252;2023-03-01T01:49:31;19.10;35.50
45843;DHT22;31563;51.744;8.252;2023-03-01T01:52:07;19.00;35.50
45843;DHT22;31563;51.744;8.252;2023-03-01T01:54:43;19.00;35.50
45843;DHT22;31563;51.744;8.252;2023-03-01T01:57:15;18.90;35.60
45843;DHT22;31563;51.744;8.252;2023-03-01T01:59:47;18.90;35.40
45843;DHT22;31563;51.744;8.252;2023-03-01T02:02:18;18.90;35.50
45843;DHT22;31563;51.744;8.252;2023-03-01T02:04:47;18.90;36.10
45843;DHT22;31563;51.744;8.252;2023-03-01T02:07:19;18.90;35.40
45843;DHT22;31563;51.744;8.252;2023-03-01T02:09:50;18.80;35.40
45843;DHT22;31563;51.744;8.252;2023-03-01T02:12:21;18.80;35.50
45843;DHT22;31563;51.744;8.252;2023-03-01T02:14:50;18.80;35.40
45843;DHT22;31563;51.744;8.252;2023-03-01T02:17:19;18.80;35.50
45843;DHT22;31563;51.744;8.252;2023-03-01T02:19:57;18.80;35.40
45843;DHT22;31563;51.744;8.252;2023-03-01T02:22:31;18.80;35.50
45843;DHT22;31563;51.744;8.252;2023-03-01T02:25:08;18.70;35.40
45843;DHT22;31563;51.744;8.252;2023-03-01T02:27:48;18.70;35.40
45843;DHT22;31563;51.744;8.252;2023-03-01T02:30:21;18.70;35.50
45843;DHT22;31563;51.744;8.252;2023-03-01T02:32:50;18.70;35.50
45843;DHT22;31563;51.744;8.252;2023-03-01T02:35:18;18.60;35.40
45843;DHT22;31563;51.744;8.252;2023-03-01T02:37:48;18.60;35.60
45843;DHT22;31563;51.744;8.252;2023-03-01T02:40:17;18.50;35.60
45843;DHT22;31563;51.744;8.252;2023-03-01T02:42:51;18.50;35.60
45843;DHT22;31563;51.744;8.252;2023-03-01T02:45:24;18.50;35.60
45843;DHT22;31563;51.744;8.252;2023-03-01T02:47:54;18.50;35.60
45843;DHT22;31563;51.744;8.252;2023-03-01T02:50:35;18.50;35.50
45843;DHT22;31563;51.744;8.252;2023-03-01T02:53:14;18.50;35.40
45843;DHT22;31563;51.744;8.252;2023-03-01T02:55:44;18.40;35.30
45843;DHT22;31563;51.744;8.252;2023-03-01T02:58:13;18.40;35.40
45843;DHT22;31563;51.744;8.252;2023-03-01T03:00:43;18.40;35.40
45843;DHT22;31563;51.744;8.252;2023-03-01T03:03:13;18.40;35.40
45843;DHT22;31563;51.744;8.252;2023-03-01T03:05:41;18.40;35.60
45843;DHT22;31563;51.744;8.252;2023-03-01T03:08:10;18.30;35.40
45843;DHT22;31563;51.744;8.252;2023-03-01T03:10:40;18.30;35.40
45843;DHT22;31563;51.744;8.252;2023-03-01T03:13:10;18.20;35.50
45843;DHT22;31563;51.744;8.252;2023-03-01T03:15:39;18.20;35.40
45843;DHT22;31563;51.744;8.252;2023-03-01T03:18:12;18.20;35.40
45843;DHT22;31563;51.744;8.252;2023-03-01T03:20:41;18.20;35.40
45843;DHT22;31563;51.744;8.252;2023-03-01T03:23:09;18.10;35.40
45843;DHT22;31563;51.744;8.252;2023-03-01T03:25:37;18.10;35.40
45843;DHT22;31563;51.744;8.252;2023-03-01T03:28:07;18.10;35.40
45843;DHT22;31563;51.744;8.252;2023-03-01T03:30:39;18.10;35.50
45843;DHT22;31563;51.744;8.252;2023-03-01T03:33:09;18.10;35.50
45843;DHT22;31563;51.744;8.252;2023-03-01T03:35:41;18.10;35.60
45843;DHT22;31563;51.744;8.252;2023-03-01T03:38:11;18.00;35.30
45843;DHT22;31563;51.744;8.252;2023-03-01T03:40:44;18.00;35.30
45843;DHT22;31563;51.744;8.252;2023-03-01T03:43:14;17.90;35.30
45843;DHT22;31563;51.744;8.252;2023-03-01T03:45:44;18.00;35.50
45843;DHT22;31563;51.744;8.252;2023-03-01T03:48:14;18.00;35.30
45843;DHT22;31563;51.744;8.252;2023-03-01T03:50:47;17.90;35.90
45843;DHT22;31563;51.744;8.252;2023-03-01T03:53:16;17.90;35.30
45843;DHT22;31563;51.744;8.252;2023-03-01T03:55:45;17.90;35.30
45843;DHT22;31563;51.744;8.252;2023-03-01T03:58:16;17.80;35.30
45843;DHT22;31563;51.744;8.252;2023-03-01T04:00:47;17.80;35.90
45843;DHT22;31563;51.744;8.252;2023-03-01T04:03:18;17.80;35.20
45843;DHT22;31563;51.744;8.252;2023-03-01T04:05:47;17.70;35.30
45843;DHT22;31563;51.744;8.252;2023-03-01T04:08:17;17.70;35.40
45843;DHT22;31563;51.744;8.252;2023-03-01T04:10:47;17.70;35.40
45843;DHT22;31563;51.744;8.252;2023-03-01T04:13:17;17.70;35.50
45843;DHT22;31563;51.744;8.252;2023-03-01T04:15:46;17.70;35.50
45843;DHT22;31563;51.744;8.252;2023-03-01T04:18:18;17.70;35.50
45843;DHT22;31563;51.744;8.252;2023-03-01T04:20:47;17.60;35.40
45843;DHT22;31563;51.744;8.252;2023-03-01T04:23:17;17.60;35.40
45843;DHT22;31563;51.744;8.252;2023-03-01T04:25:48;17.60;35.40
45843;DHT22;31563;51.744;8.252;2023-03-01T04:28:21;17.60;35.50
45843;DHT22;31563;51.744;8.252;2023-03-01T04:30:51;17.60;35.40
45843;DHT22;31563;51.744;8.252;2023-03-01T04:33:21;17.60;35.50
45843;DHT22;31563;51.744;8.252;2023-03-01T04:35:50;17.60;35.40
45843;DHT22;31563;51.744;8.252;2023-03-01T04:38:20;17.50;35.30
45843;DHT22;31563;51.744;8.252;2023-03-01T04:40:48;17.50;35.40
45843;DHT22;31563;51.744;8.252;2023-03-01T04:43:16;17.50;35.30
45843;DHT22;31563;51.744;8.252;2023-03-01T04:45:45;17.50;35.40
45843;DHT22;31563;51.744;8.252;2023-03-01T04:48:13;17.50;35.40
45843;DHT22;31563;51.744;8.252;2023-03-01T04:50:42;17.50;35.50
45843;DHT22;31563;51.744;8.252;2023-03-01T04:53:10;17.50;35.60
45843;DHT22;31563;51.744;8.252;2023-03-01T04:55:38;17.60;35.60
45843;DHT22;31563;51.744;8.252;2023-03-01T04:58:06;17.70;35.60
45843;DHT22;31563;51.744;8.252;2023-03-01T05:00:34;17.80;35.60
45843;DHT22;31563;51.744;8.252;2023-03-01T05:03:03;17.80;35.50
45843;DHT22;31563;51.744;8.252;2023-03-01T05:05:33;17.90;35.30
45843;DHT22;31563;51.744;8.252;2023-03-01T05:08:04;18.00;35.40
45843;DHT22;31563;51.744;8.252;2023-03-01T05:10:35;18.00;35.30
45843;DHT22;31563;51.744;8.252;2023-03-01T05:13:05;18.00;35.20
45843;DHT22;31563;51.744;8.252;2023-03-01T05:15:33;18.00;35.20
45843;DHT22;31563;51.744;8.252;2023-03-01T05:18:03;18.00;35.10
45843;DHT22;31563;51.744;8.252;2023-03-01T05:20:34;18.10;35.10
45843;DHT22;31563;51.744;8.252;2023-03-01T05:23:04;18.10;35.00
45843;DHT22;31563;51.744;8.252;2023-03-01T05:25:33;18.10;35.00
45843;DHT22;31563;51.744;8.252;2023-03-01T05:28:08;18.10;35.00
45843;DHT22;31563;51.744;8.252;2023-03-01T05:30:38;18.10;34.90
45843;DHT22;31563;51.744;8.252;2023-03-01T05:33:07;18.20;34.90
45843;DHT22;31563;51.744;8.252;2023-03-01T05:35:40;18.20;34.80
45843;DHT22;31563;51.744;8.252;2023-03-01T05:38:11;18.20;34.70
45843;DHT22;31563;51.744;8.252;2023-03-01T05:40:40;18.20;34.80
45843;DHT22;31563;51.744;8.252;2023-03-01T05:43:09;18.30;34.70
45843;DHT22;31563;51.744;8.252;2023-03-01T05:45:38;18.20;34.70
45843;DHT22;31563;51.744;8.252;2023-03-01T05:48:07;18.30;34.70
45843;DHT22;31563;51.744;8.252;2023-03-01T05:50:37;18.30;34.70
45843;DHT22;31563;51.744;8.252;2023-03-01T05:53:07;18.30;34.70
45843;DHT22;31563;51.744;8.252;2023-03-01T05:55:38;18.20;32.80
45843;DHT22;31563;51.744;8.252;2023-03-01T05:58:07;17.80;30.30
45843;DHT22;31563;51.744;8.252;2023-03-01T06:00:35;17.20;30.00
45843;DHT22;31563;51.744;8.252;2023-03-01T06:03:03;16.90;30.00
45843;DHT22;31563;51.744;8.252;2023-03-01T06:05:32;16.70;29.70
45843;DHT22;31563;51.744;8.252;2023-03-01T06:08:00;16.90;32.30
45843;DHT22;31563;51.744;8.252;2023-03-01T06:10:29;17.20;32.70
45843;DHT22;31563;51.744;8.252;2023-03-01T06:12:58;17.40;32.80
45843;DHT22;31563;51.744;8.252;2023-03-01T06:15:27;17.50;32.90
45843;DHT22;31563;51.744;8.252;2023-03-01T06:17:55;17.60;32.70
45843;DHT22;31563;51.744;8.252;2023-03-01T06:20:27;17.70;32.70
45843;DHT22;31563;51.744;8.252;2023-03-01T06:22:56;17.70;32.70
45843;DHT22;31563;51.744;8.252;2023-03-01T06:25:26;17.70;32.60
45843;DHT22;31563;51.744;8.252;2023-03-01T06:27:54;17.80;32.50
45843;DHT22;31563;51.744;8.252;2023-03-01T06:30:25;17.80;32.50
45843;DHT22;31563;51.744;8.252;2023-03-01T06:32:53;17.90;32.60
45843;DHT22;31563;51.744;8.252;2023-03-01T06:35:28;17.90;32.60
45843;DHT22;31563;51.744;8.252;2023-03-01T06:37:59;17.90;32.50
45843;DHT22;31563;51.744;8.252;2023-03-01T06:40:28;18.00;32.50
45843;DHT22;31563;51.744;8.252;2023-03-01T06:42:57;18.00;32.40
45843;DHT22;31563;51.744;8.252;2023-03-01T06:45:27;18.00;32.50
45843;DHT22;31563;51.744;8.252;2023-03-01T06:48:02;18.00;32.30
45843;DHT22;31563;51.744;8.252;2023-03-01T06:50:31;18.10;32.30
45843;DHT22;31563;51.744;8.252;2023-03-01T06:53:00;18.10;32.30
45843;DHT22;31563;51.744;8.252;2023-03-01T06:55:28;18.20;32.30
45843;DHT22;31563;51.744;8.252;2023-03-01T06:57:56;18.20;32.30
45843;DHT22;31563;51.744;8.252;2023-03-01T07:00:27;18.20;32.30
45843;DHT22;31563;51.744;8.252;2023-03-01T07:02:59;18.30;32.20
45843;DHT22;31563;51.744;8.252;2023-03-01T07:05:28;18.30;32.10
45843;DHT22;31563;51.744;8.252;2023-03-01T07:07:57;18.30;32.20
45843;DHT22;31563;51.744;8.252;2023-03-01T07:10:25;18.40;32.10
45843;DHT22;31563;51.744;8.252;2023-03-01T07:12:55;18.40;32.10
45843;DHT22;31563;51.744;8.252;2023-03-01T07:15:23;18.50;32.20
45843;DHT22;31563;51.744;8.252;2023-03-01T07:17:53;18.60;32.00
45843;DHT22;31563;51.744;8.252;2023-03-01T07:20:21;18.70;32.00
45843;DHT22;31563;51.744;8.252;2023-03-01T07:22:51;18.80;31.90
45843;DHT22;31563;51.744;8.252;2023-03-01T07:25:19;18.90;31.90
45843;DHT22;31563;51.744;8.252;2023-03-01T07:27:49;18.90;31.80
45843;DHT22;31563;51.744;8.252;2023-03-01T07:30:18;19.10;31.90
45843;DHT22;31563;51.744;8.252;2023-03-01T07:32:46;19.20;31.80
45843;DHT22;31563;51.744;8.252;2023-03-01T07:35:16;19.40;31.50
45843;DHT22;31563;51.744;8.252;2023-03-01T07:37:44;19.50;31.60
45843;DHT22;31563;51.744;8.252;2023-03-01T07:40:13;19.60;31.60
45843;DHT22;31563;51.744;8.252;2023-03-01T07:42:41;19.70;31.60
45843;DHT22;31563;51.744;8.252;2023-03-01T07:45:10;19.80;31.30
45843;DHT22;31563;51.744;8.252;2023-03-01T07:47:40;19.90;31.30
45843;DHT22;31563;51.744;8.252;2023-03-01T07:50:09;20.10;31.30
45843;DHT22;31563;51.744;8.252;2023-03-01T07:52:39;20.30;31.40
45843;DHT22;31563;51.744;8.252;2023-03-01T07:55:08;20.40;31.40
45843;DHT22;31563;51.744;8.252;2023-03-01T07:57:36;20.40;29.30
45843;DHT22;31563;51.744;8.252;2023-03-01T08:00:05;20.10;29.00
45843;DHT22;31563;51.744;8.252;2023-03-01T08:02:33;19.90;29.80
45843;DHT22;31563;51.744;8.252;2023-03-01T08:05:02;20.30;30.70
45843;DHT22;31563;51.744;8.252;2023-03-01T08:07:30;20.60;30.80
45843;DHT22;31563;51.744;8.252;2023-03-01T08:09:59;20.90;30.60
45843;DHT22;31563;51.744;8.252;2023-03-01T08:12:27;21.10;28.90
45843;DHT22;31563;51.744;8.252;2023-03-01T08:14:55;20.60;27.10
45843;DHT22;31563;51.744;8.252;2023-03-01T08:17:24;20.60;29.10
45843;DHT22;31563;51.744;8.252;2023-03-01T08:19:52;20.90;29.70
45843;DHT22;31563;51.744;8.252;2023-03-01T08:22:21;21.20;29.50
45843;DHT22;31563;51.744;8.252;2023-03-01T08:24:49;21.50;29.50
45843;DHT22;31563;51.744;8.252;2023-03-01T08:27:18;21.70;29.50
45843;DHT22;31563;51.744;8.252;2023-03-01T08:29:46;22.00;29.30
45843;DHT22;31563;51.744;8.252;2023-03-01T08:32:14;22.20;29.30
45843;DHT22;31563;51.744;8.252;2023-03-01T08:34:46;22.50;29.20
45843;DHT22;31563;51.744;8.252;2023-03-01T08:37:14;22.70;29.20
45843;DHT22;31563;51.744;8.252;2023-03-01T08:39:42;22.90;29.00
45843;DHT22;31563;51.744;8.252;2023-03-01T08:42:10;23.20;29.10
45843;DHT22;31563;51.744;8.252;2023-03-01T08:44:40;23.30;29.40
45843;DHT22;31563;51.744;8.252;2023-03-01T08:47:08;23.60;28.80
45843;DHT22;31563;51.744;8.252;2023-03-01T08:49:36;23.80;28.70
45843;DHT22;31563;51.744;8.252;2023-03-01T08:52:04;23.90;28.60
45843;DHT22;31563;51.744;8.252;2023-03-01T08:54:32;24.20;28.70
45843;DHT22;31563;51.744;8.252;2023-03-01T08:57:01;24.40;28.60
45843;DHT22;31563;51.744;8.252;2023-03-01T08:59:30;24.60;28.60
45843;DHT22;31563;51.744;8.252;2023-03-01T09:02:03;24.90;28.50
45843;DHT22;31563;51.744;8.252;2023-03-01T09:04:32;25.10;28.40
45843;DHT22;31563;51.744;8.252;2023-03-01T09:07:00;25.30;28.40
45843;DHT22;31563;51.744;8.252;2023-03-01T09:09:28;25.50;28.30
45843;DHT22;31563;51.744;8.252;2023-03-01T09:11:56;25.80;28.20
45843;DHT22;31563;51.744;8.252;2023-03-01T09:14:24;26.00;28.20
45843;DHT22;31563;51.744;8.252;2023-03-01T09:16:52;26.20;28.20
45843;DHT22;31563;51.744;8.252;2023-03-01T09:19:22;26.50;28.10
45843;DHT22;31563;51.744;8.252;2023-03-01T09:21:53;26.70;28.10
45843;DHT22;31563;51.744;8.252;2023-03-01T09:24:24;27.00;28.00
45843;DHT22;31563;51.744;8.252;2023-03-01T09:26:55;27.20;28.00
45843;DHT22;31563;51.744;8.252;2023-03-01T09:29:24;27.50;28.10
45843;DHT22;31563;51.744;8.252;2023-03-01T09:31:52;27.70;27.90
45843;DHT22;31563;51.744;8.252;2023-03-01T09:34:23;27.90;27.80
45843;DHT22;31563;51.744;8.252;2023-03-01T09:36:51;28.20;27.90
45843;DHT22;31563;51.744;8.252;2023-03-01T09:39:20;28.50;27.60
45843;DHT22;31563;51.744;8.252;2023-03-01T09:41:53;28.70;27.50
45843;DHT22;31563;51.744;8.252;2023-03-01T09:44:31;29.00;27.60
45843;DHT22;31563;51.744;8.252;2023-03-01T09:47:02;29.30;27.40
45843;DHT22;31563;51.744;8.252;2023-03-01T09:49:33;29.50;27.20
45843;DHT22;31563;51.744;8.252;2023-03-01T09:52:09;29.90;27.30
45843;DHT22;31563;51.744;8.252;2023-03-01T09:54:41;30.20;27.20
45843;DHT22;31563;51.744;8.252;2023-03-01T09:57:19;30.50;27.10
45843;DHT22;31563;51.744;8.252;2023-03-01T10:00:00;30.80;27.20
45843;DHT22;31563;51.744;8.252;2023-03-01T10:02:38;31.10;27.10
45843;DHT22;31563;51.744;8.252;2023-03-01T10:05:19;31.40;26.80
45843;DHT22;31563;51.744;8.252;2023-03-01T10:07:56;31.70;26.60
45843;DHT22;31563;51.744;8.252;2023-03-01T10:10:33;32.00;26.50
45843;DHT22;31563;51.744;8.252;2023-03-01T10:13:08;32.30;26.80
45843;DHT22;31563;51.744;8.252;2023-03-01T10:15:41;32.50;26.70
45843;DHT22;31563;51.744;8.252;2023-03-01T10:18:14;32.70;26.70
45843;DHT22;31563;51.744;8.252;2023-03-01T10:20:48;32.90;26.90
45843;DHT22;31563;51.744;8.252;2023-03-01T10:23:19;33.30;27.10
45843;DHT22;31563;51.744;8.252;2023-03-01T10:25:56;33.60;26.80
45843;DHT22;31563;51.744;8.252;2023-03-01T10:28:40;33.80;26.90
45843;DHT22;31563;51.744;8.252;2023-03-01T10:31:13;34.00;26.30
45843;DHT22;31563;51.744;8.252;2023-03-01T10:33:42;34.20;26.20
45843;DHT22;31563;51.744;8.252;2023-03-01T10:36:12;34.30;26.20
45843;DHT22;31563;51.744;8.252;2023-03-01T10:38:51;34.40;26.10
45843;DHT22;31563;51.744;8.252;2023-03-01T10:41:23;34.60;26.10
45843;DHT22;31563;51.744;8.252;2023-03-01T10:43:53;34.80;26.30
45843;DHT22;31563;51.744;8.252;2023-03-01T10:46:27;35.20;26.50
45843;DHT22;31563;51.744;8.252;2023-03-01T10:49:14;35.70;26.50
45843;DHT22;31563;51.744;8.252;2023-03-01T10:51:45;36.10;26.20
45843;DHT22;31563;51.744;8.252;2023-03-01T10:54:20;36.40;26.00
45843;DHT22;31563;51.744;8.252;2023-03-01T10:56:50;36.70;25.70
45843;DHT22;31563;51.744;8.252;2023-03-01T10:59:26;36.70;22.60
45843;DHT22;31563;51.744;8.252;2023-03-01T11:02:15;36.50;23.80
45843;DHT22;31563;51.744;8.252;2023-03-01T11:04:59;36.90;24.60
45843;DHT22;31563;51.744;8.252;2023-03-01T11:07:29;37.50;24.50
45843;DHT22;31563;51.744;8.252;2023-03-01T11:09:57;37.90;24.30
45843;DHT22;31563;51.744;8.252;2023-03-01T11:12:26;38.40;24.90
45843;DHT22;31563;51.744;8.252;2023-03-01T11:14:57;38.80;24.40
45843;DHT22;31563;51.744;8.252;2023-03-01T11:17:26;39.10;24.30
45843;DHT22;31563;51.744;8.252;2023-03-01T11:20:06;39.50;24.30
45843;DHT22;31563;51.744;8.252;2023-03-01T11:22:47;39.80;24.10
45843;DHT22;31563;51.744;8.252;2023-03-01T11:25:18;40.10;24.00
45843;DHT22;31563;51.744;8.252;2023-03-01T11:27:47;40.50;23.70
45843;DHT22;31563;51.744;8.252;2023-03-01T11:30:19;40.80;23.80
45843;DHT22;31563;51.744;8.252;2023-03-01T11:32:55;41.00;23.30
45843;DHT22;31563;51.744;8.252;2023-03-01T11:35:26;41.20;23.30
45843;DHT22;31563;51.744;8.252;2023-03-01T11:38:02;41.40;23.60
45843;DHT22;31563;51.744;8.252;2023-03-01T11:40:35;41.80;23.70
45843;DHT22;31563;51.744;8.252;2023-03-01T11:43:12;42.00;23.40
45843;DHT22;31563;51.744;8.252;2023-03-01T11:45:53;42.20;23.40
45843;DHT22;31563;51.744;8.252;2023-03-01T11:48:41;42.40;23.00
45843;DHT22;31563;51.744;8.252;2023-03-01T11:51:24;42.50;23.20
45843;DHT22;31563;51.744;8.252;2023-03-01T11:54:09;42.60;23.10
45843;DHT22;31563;51.744;8.252;2023-03-01T11:56:41;42.80;23.30
45843;DHT22;31563;51.744;8.252;2023-03-01T11:59:45;43.00;23.10
45843;DHT22;31563;51.744;8.252;2023-03-01T12:05:43;43.30;23.10
45843;DHT22;31563;51.744;8.252;2023-03-01T12:08:17;43.50;23.30
45843;DHT22;31563;51.744;8.252;2023-03-01T12:10:56;43.70;23.20
45843;DHT22;31563;51.744;8.252;2023-03-01T12:13:44;43.90;23.30
45843;DHT22;31563;51.744;8.252;2023-03-01T12:16:27;44.00;23.30
45843;DHT22;31563;51.744;8.252;2023-03-01T12:19:26;44.00;23.10
45843;DHT22;31563;51.744;8.252;2023-03-01T12:22:15;44.20;23.30
45843;DHT22;31563;51.744;8.252;2023-03-01T12:25:06;44.20;23.20
45843;DHT22;31563;51.744;8.252;2023-03-01T12:30:56;44.30;23.20
45843;DHT22;31563;51.744;8.252;2023-03-01T12:33:37;44.30;23.20
45843;DHT22;31563;51.744;8.252;2023-03-01T12:36:34;44.30;23.30
45843;DHT22;31563;51.744;8.252;2023-03-01T12:39:20;44.20;23.20
45843;DHT22;31563;51.744;8.252;2023-03-01T12:42:01;44.00;22.30
45843;DHT22;31563;51.744;8.252;2023-03-01T12:44:45;43.20;22.30
45843;DHT22;31563;51.744;8.252;2023-03-01T12:47:26;42.60;22.50
45843;DHT22;31563;51.744;8.252;2023-03-01T12:49:59;42.20;22.70
45843;DHT22;31563;51.744;8.252;2023-03-01T12:52:35;41.90;22.90
45843;DHT22;31563;51.744;8.252;2023-03-01T12:55:23;41.50;22.90
45843;DHT22;31563;51.744;8.252;2023-03-01T12:57:59;41.30;22.90
45843;DHT22;31563;51.744;8.252;2023-03-01T13:00:35;41.00;22.90
45843;DHT22;31563;51.744;8.252;2023-03-01T13:03:14;41.00;23.10
45843;DHT22;31563;51.744;8.252;2023-03-01T13:05:56;41.20;23.10
45843;DHT22;31563;51.744;8.252;2023-03-01T13:08:33;41.40;23.20
45843;DHT22;31563;51.744;8.252;2023-03-01T13:11:06;41.60;23.20
45843;DHT22;31563;51.744;8.252;2023-03-01T13:13:39;41.60;23.30
45843;DHT22;31563;51.744;8.252;2023-03-01T13:16:21;41.70;23.30
45843;DHT22;31563;51.744;8.252;2023-03-01T13:19:06;41.70;23.30
45843;DHT22;31563;51.744;8.252;2023-03-01T13:21:34;41.80;23.30
45843;DHT22;31563;51.744;8.252;2023-03-01T13:24:03;41.70;23.20
45843;DHT22;31563;51.744;8.252;2023-03-01T13:26:31;41.70;23.30
45843;DHT22;31563;51.744;8.252;2023-03-01T13:29:27;41.70;23.40
45843;DHT22;31563;51.744;8.252;2023-03-01T13:31:56;41.70;23.50
45843;DHT22;31563;51.744;8.252;2023-03-01T13:37:30;41.00;22.70
45843;DHT22;31563;51.744;8.252;2023-03-01T13:40:05;40.30;22.90
45843;DHT22;31563;51.744;8.252;2023-03-01T13:42:46;39.70;20.70
45843;DHT22;31563;51.744;8.252;2023-03-01T13:45:38;38.50;19.70
45843;DHT22;31563;51.744;8.252;2023-03-01T13:48:11;37.50;19.90
45843;DHT22;31563;51.744;8.252;2023-03-01T13:50:46;36.80;19.80
45843;DHT22;31563;51.744;8.252;2023-03-01T13:53:17;36.30;19.70
45843;DHT22;31563;51.744;8.252;2023-03-01T13:55:48;35.90;19.50
45843;DHT22;31563;51.744;8.252;2023-03-01T13:58:22;35.60;19.60
45843;DHT22;31563;51.744;8.252;2023-03-01T14:01:01;35.30;19.70
45843;DHT22;31563;51.744;8.252;2023-03-01T14:03:30;35.80;20.70
45843;DHT22;31563;51.744;8.252;2023-03-01T14:06:02;36.50;21.60
45843;DHT22;31563;51.744;8.252;2023-03-01T14:08:41;37.40;22.20
45843;DHT22;31563;51.744;8.252;2023-03-01T14:14:23;39.90;22.30
45843;DHT22;31563;51.744;8.252;2023-03-01T14:17:03;41.50;21.90
45843;DHT22;31563;51.744;8.252;2023-03-01T14:19:35;42.60;21.50
45843;DHT22;31563;51.744;8.252;2023-03-01T14:22:21;43.10;21.30
45843;DHT22;31563;51.744;8.252;2023-03-01T14:24:52;43.60;21.20
45843;DHT22;31563;51.744;8.252;2023-03-01T14:27:23;44.30;21.00
45843;DHT22;31563;51.744;8.252;2023-03-01T14:29:57;44.40;20.90
45843;DHT22;31563;51.744;8.252;2023-03-01T14:32:29;44.40;20.90
45843;DHT22;31563;51.744;8.252;2023-03-01T14:34:59;44.40;20.90
45843;DHT22;31563;51.744;8.252;2023-03-01T14:37:28;44.80;20.80
45843;DHT22;31563;51.744;8.252;2023-03-01T14:39:59;45.10;20.70
45843;DHT22;31563;51.744;8.252;2023-03-01T14:42:31;45.50;20.60
45843;DHT22;31563;51.744;8.252;2023-03-01T14:45:04;45.60;20.50
45843;DHT22;31563;51.744;8.252;2023-03-01T14:47:35;45.50;20.40
45843;DHT22;31563;51.744;8.252;2023-03-01T14:50:09;45.30;18.70
45843;DHT22;31563;51.744;8.252;2023-03-01T14:52:46;44.20;17.90
45843;DHT22;31563;51.744;8.252;2023-03-01T14:55:17;43.30;17.50
45843;DHT22;31563;51.744;8.252;2023-03-01T14:57:48;42.60;17.10
45843;DHT22;31563;51.744;8.252;2023-03-01T15:00:19;41.90;17.30
45843;DHT22;31563;51.744;8.252;2023-03-01T15:02:50;41.70;17.30
45843;DHT22;31563;51.744;8.252;2023-03-01T15:05:24;41.50;17.10
45843;DHT22;31563;51.744;8.252;2023-03-01T15:07:53;41.20;17.00
45843;DHT22;31563;51.744;8.252;2023-03-01T15:10:24;41.30;17.50
45843;DHT22;31563;51.744;8.252;2023-03-01T15:12:52;42.00;17.80
45843;DHT22;31563;51.744;8.252;2023-03-01T15:15:38;42.90;18.10
45843;DHT22;31563;51.744;8.252;2023-03-01T15:18:18;43.80;18.10
45843;DHT22;31563;51.744;8.252;2023-03-01T15:20:47;44.30;18.10
45843;DHT22;31563;51.744;8.252;2023-03-01T15:23:21;44.50;18.20
45843;DHT22;31563;51.744;8.252;2023-03-01T15:25:50;44.60;18.30
45843;DHT22;31563;51.744;8.252;2023-03-01T15:28:26;44.60;18.30
45843;DHT22;31563;51.744;8.252;2023-03-01T15:30:57;44.80;18.50
45843;DHT22;31563;51.744;8.252;2023-03-01T15:33:33;44.80;18.60
45843;DHT22;31563;51.744;8.252;2023-03-01T15:36:04;44.90;18.70
45843;DHT22;31563;51.744;8.252;2023-03-01T15:38:53;45.00;18.80
45843;DHT22;31563;51.744;8.252;2023-03-01T15:41:24;44.90;18.90
45843;DHT22;31563;51.744;8.252;2023-03-01T15:43:53;44.80;18.90
45843;DHT22;31563;51.744;8.252;2023-03-01T15:46:25;44.70;19.10
45843;DHT22;31563;51.744;8.252;2023-03-01T15:48:57;44.50;19.10
45843;DHT22;31563;51.744;8.252;2023-03-01T15:51:32;44.40;19.10
45843;DHT22;31563;51.744;8.252;2023-03-01T15:54:03;44.10;19.10
45843;DHT22;31563;51.744;8.252;2023-03-01T15:56:32;43.40;19.30
45843;DHT22;31563;51.744;8.252;2023-03-01T15:59:01;42.50;19.80
45843;DHT22;31563;51.744;8.252;2023-03-01T16:01:30;41.60;20.10
45843;DHT22;31563;51.744;8.252;2023-03-01T16:04:02;41.00;20.30
45843;DHT22;31563;51.744;8.252;2023-03-01T16:06:30;40.50;20.50
45843;DHT22;31563;51.744;8.252;2023-03-01T16:08:59;40.10;20.80
45843;DHT22;31563;51.744;8.252;2023-03-01T16:11:27;39.70;20.90